sensor_id;sensor_type;location;lat;lon;timestamp;P1;durP1;ratioP1;P2;durP2;ratioP2
29732;SDS011;16643;43.158;25.302;2023-06-14T00:00:18;14.25;;;9.40;;
29732;SDS011;16643;43.158;25.302;2023-06-14T00:02:45;14.85;;;10.68;;
29732;SDS011;16643;43.158;25.302;2023-06-14T00:05:10;15.52;;;9.30;;
29732;SDS011;16643;43.158;25.302;2023-06-14T00:07:39;17.10;;;10.02;;
29732;SDS011;16643;43.158;25.302;2023-06-14T00:10:10;12.63;;;9.25;;
29732;SDS011;16643;43.158;25.302;2023-06-14T00:12:36;11.35;;;9.23;;
29732;SDS011;16643;43.158;25.302;2023-06-14T00:15:03;13.20;;;8.90;;
29732;SDS011;16643;43.158;25.302;2023-06-14T00:17:30;12.35;;;9.38;;
29732;SDS011;16643;43.158;25.302;2023-06-14T00:19:57;14.32;;;9.40;;
29732;SDS011;16643;43.158;25.302;2023-06-14T00:22:24;11.97;;;9.27;;
29732;SDS011;16643;43.158;25.302;2023-06-14T00:24:50;13.13;;;9.90;;
29732;SDS011;16643;43.158;25.302;2023-06-14T00:27:16;14.93;;;10.25;;
29732;SDS011;16643;43.158;25.302;2023-06-14T00:29:42;15.02;;;9.80;;
29732;SDS011;16643;43.158;25.302;2023-06-14T00:32:07;12.00;;;9.27;;
29732;SDS011;16643;43.158;25.302;2023-06-14T00:34:33;12.65;;;9.23;;
29732;SDS011;16643;43.158;25.302;2023-06-14T00:36:59;15.85;;;10.00;;
29732;SDS011;16643;43.158;25.302;2023-06-14T00:39:25;12.00;;;8.57;;
29732;SDS011;16643;43.158;25.302;2023-06-14T00:41:51;12.98;;;10.07;;
29732;SDS011;16643;43.158;25.302;2023-06-14T00:44:16;13.85;;;9.77;;
29732;SDS011;16643;43.158;25.302;2023-06-14T00:46:43;16.20;;;9.93;;
29732;SDS011;16643;43.158;25.302;2023-06-14T00:51:37;12.85;;;9.15;;
29732;SDS011;16643;43.158;25.302;2023-06-14T00:54:02;17.35;;;10.10;;
29732;SDS011;16643;43.158;25.302;2023-06-14T00:56:28;13.68;;;9.55;;
29732;SDS011;16643;43.158;25.302;2023-06-14T00:58:55;12.93;;;9.73;;
29732;SDS011;16643;43.158;25.302;2023-06-14T01:03:53;14.98;;;9.38;;
29732;SDS011;16643;43.158;25.302;2023-06-14T01:11:54;16.83;;;9.27;;
29732;SDS011;16643;43.158;25.302;2023-06-14T01:14:36;15.30;;;11.07;;
29732;SDS011;16643;43.158;25.302;2023-06-14T01:17:05;18.95;;;11.43;;
29732;SDS011;16643;43.158;25.302;2023-06-14T01:19:33;14.85;;;10.85;;
29732;SDS011;16643;43.158;25.302;2023-06-14T01:22:00;16.23;;;10.35;;
29732;SDS011;16643;43.158;25.302;2023-06-14T01:24:27;17.38;;;10.43;;
29732;SDS011;16643;43.158;25.302;2023-06-14T01:26:57;15.30;;;10.63;;
29732;SDS011;16643;43.158;25.302;2023-06-14T01:29:23;16.83;;;11.73;;
29732;SDS011;16643;43.158;25.302;2023-06-14T01:31:55;16.77;;;11.15;;
29732;SDS011;16643;43.158;25.302;2023-06-14T01:34:21;17.33;;;11.35;;
29732;SDS011;16643;43.158;25.302;2023-06-14T01:36:47;18.52;;;10.10;;
29732;SDS011;16643;43.158;25.302;2023-06-14T01:39:15;15.68;;;10.68;;
29732;SDS011;16643;43.158;25.302;2023-06-14T01:41:41;14.65;;;11.07;;
29732;SDS011;16643;43.158;25.302;2023-06-14T01:44:08;16.40;;;11.55;;
29732;SDS011;16643;43.158;25.302;2023-06-14T01:46:36;18.25;;;10.38;;
29732;SDS011;16643;43.158;25.302;2023-06-14T01:49:02;13.20;;;11.15;;
29732;SDS011;16643;43.158;25.302;2023-06-14T01:51:27;14.80;;;10.73;;
29732;SDS011;16643;43.158;25.302;2023-06-14T01:53:53;15.07;;;10.55;;
29732;SDS011;16643;43.158;25.302;2023-06-14T01:56:20;16.67;;;11.20;;
29732;SDS011;16643;43.158;25.302;2023-06-14T01:58:46;18.38;;;10.85;;
29732;SDS011;16643;43.158;25.302;2023-06-14T02:01:13;18.52;;;11.93;;
29732;SDS011;16643;43.158;25.302;2023-06-14T02:03:41;14.80;;;10.93;;
29732;SDS011;16643;43.158;25.302;2023-06-14T02:06:08;15.02;;;10.52;;
29732;SDS011;16643;43.158;25.302;2023-06-14T02:08:35;15.77;;;10.68;;
29732;SDS011;16643;43.158;25.302;2023-06-14T02:11:01;14.43;;;9.95;;
29732;SDS011;16643;43.158;25.302;2023-06-14T02:13:26;17.10;;;11.23;;
29732;SDS011;16643;43.158;25.302;2023-06-14T02:15:52;15.77;;;10.50;;
29732;SDS011;16643;43.158;25.302;2023-06-14T02:18:20;15.73;;;12.18;;
29732;SDS011;16643;43.158;25.302;2023-06-14T02:20:46;17.50;;;11.27;;
29732;SDS011;16643;43.158;25.302;2023-06-14T02:23:12;16.27;;;11.40;;
29732;SDS011;16643;43.158;25.302;2023-06-14T02:25:38;20.90;;;12.10;;
29732;SDS011;16643;43.158;25.302;2023-06-14T02:28:05;18.30;;;13.20;;
29732;SDS011;16643;43.158;25.302;2023-06-14T02:30:31;15.30;;;11.65;;
29732;SDS011;16643;43.158;25.302;2023-06-14T02:32:56;16.08;;;11.95;;
29732;SDS011;16643;43.158;25.302;2023-06-14T02:35:22;16.27;;;12.10;;
29732;SDS011;16643;43.158;25.302;2023-06-14T02:37:51;17.23;;;11.13;;
29732;SDS011;16643;43.158;25.302;2023-06-14T02:40:18;17.95;;;12.05;;
29732;SDS011;16643;43.158;25.302;2023-06-14T02:42:44;16.73;;;11.45;;
29732;SDS011;16643;43.158;25.302;2023-06-14T02:45:10;16.83;;;12.18;;
29732;SDS011;16643;43.158;25.302;2023-06-14T02:47:35;17.58;;;11.65;;
29732;SDS011;16643;43.158;25.302;2023-06-14T02:50:01;21.40;;;11.73;;
29732;SDS011;16643;43.158;25.302;2023-06-14T02:52:27;17.42;;;12.45;;
29732;SDS011;16643;43.158;25.302;2023-06-14T02:54:53;15.55;;;12.23;;
29732;SDS011;16643;43.158;25.302;2023-06-14T02:57:20;16.05;;;12.00;;
29732;SDS011;16643;43.158;25.302;2023-06-14T02:59:49;15.20;;;11.90;;
29732;SDS011;16643;43.158;25.302;2023-06-14T03:02:15;16.08;;;11.30;;
29732;SDS011;16643;43.158;25.302;2023-06-14T03:04:41;16.52;;;11.80;;
29732;SDS011;16643;43.158;25.302;2023-06-14T03:07:09;15.07;;;11.43;;
29732;SDS011;16643;43.158;25.302;2023-06-14T03:09:35;15.23;;;11.45;;
29732;SDS011;16643;43.158;25.302;2023-06-14T03:12:03;18.55;;;11.95;;
29732;SDS011;16643;43.158;25.302;2023-06-14T03:14:29;17.27;;;12.05;;
29732;SDS011;16643;43.158;25.302;2023-06-14T03:16:56;15.60;;;11.82;;
29732;SDS011;16643;43.158;25.302;2023-06-14T03:19:22;15.50;;;11.23;;
29732;SDS011;16643;43.158;25.302;2023-06-14T03:21:48;13.00;;;11.48;;
29732;SDS011;16643;43.158;25.302;2023-06-14T03:24:15;16.63;;;11.50;;
29732;SDS011;16643;43.158;25.302;2023-06-14T03:26:43;15.45;;;11.00;;
29732;SDS011;16643;43.158;25.302;2023-06-14T03:29:09;19.65;;;12.05;;
29732;SDS011;16643;43.158;25.302;2023-06-14T03:31:35;16.98;;;12.13;;
29732;SDS011;16643;43.158;25.302;2023-06-14T03:34:01;18.48;;;12.85;;
29732;SDS011;16643;43.158;25.302;2023-06-14T03:36:26;18.25;;;12.68;;
29732;SDS011;16643;43.158;25.302;2023-06-14T03:38:53;20.95;;;14.32;;
29732;SDS011;16643;43.158;25.302;2023-06-14T03:41:20;19.90;;;13.10;;
29732;SDS011;16643;43.158;25.302;2023-06-14T03:43:45;20.42;;;13.43;;
29732;SDS011;16643;43.158;25.302;2023-06-14T03:46:11;20.40;;;14.07;;
29732;SDS011;16643;43.158;25.302;2023-06-14T03:48:37;21.52;;;13.95;;
29732;SDS011;16643;43.158;25.302;2023-06-14T03:51:03;22.27;;;14.68;;
29732;SDS011;16643;43.158;25.302;2023-06-14T03:53:30;20.08;;;14.45;;
29732;SDS011;16643;43.158;25.302;2023-06-14T03:55:56;22.65;;;15.32;;
29732;SDS011;16643;43.158;25.302;2023-06-14T03:58:22;24.05;;;15.20;;
29732;SDS011;16643;43.158;25.302;2023-06-14T04:00:48;22.48;;;14.55;;
29732;SDS011;16643;43.158;25.302;2023-06-14T04:03:14;22.00;;;14.90;;
29732;SDS011;16643;43.158;25.302;2023-06-14T04:05:41;24.70;;;15.63;;
29732;SDS011;16643;43.158;25.302;2023-06-14T04:08:14;26.92;;;16.05;;
29732;SDS011;16643;43.158;25.302;2023-06-14T04:10:41;24.17;;;15.25;;
29732;SDS011;16643;43.158;25.302;2023-06-14T04:13:06;25.63;;;15.30;;
29732;SDS011;16643;43.158;25.302;2023-06-14T04:15:32;38.33;;;16.35;;
29732;SDS011;16643;43.158;25.302;2023-06-14T04:17:58;21.90;;;14.95;;
29732;SDS011;16643;43.158;25.302;2023-06-14T04:20:24;23.33;;;15.27;;
29732;SDS011;16643;43.158;25.302;2023-06-14T04:22:50;20.58;;;14.75;;
29732;SDS011;16643;43.158;25.302;2023-06-14T04:25:17;31.60;;;17.10;;
29732;SDS011;16643;43.158;25.302;2023-06-14T04:27:43;24.85;;;15.77;;
29732;SDS011;16643;43.158;25.302;2023-06-14T04:30:10;33.92;;;18.50;;
29732;SDS011;16643;43.158;25.302;2023-06-14T04:32:35;27.08;;;17.30;;
29732;SDS011;16643;43.158;25.302;2023-06-14T04:35:08;26.05;;;17.90;;
29732;SDS011;16643;43.158;25.302;2023-06-14T04:37:34;29.38;;;17.02;;
29732;SDS011;16643;43.158;25.302;2023-06-14T04:40:00;28.10;;;16.52;;
29732;SDS011;16643;43.158;25.302;2023-06-14T04:42:25;24.38;;;15.95;;
29732;SDS011;16643;43.158;25.302;2023-06-14T04:44:56;26.98;;;17.88;;
29732;SDS011;16643;43.158;25.302;2023-06-14T04:47:22;28.73;;;17.85;;
29732;SDS011;16643;43.158;25.302;2023-06-14T04:52:18;25.33;;;16.65;;
29732;SDS011;16643;43.158;25.302;2023-06-14T04:54:46;24.02;;;15.38;;
29732;SDS011;16643;43.158;25.302;2023-06-14T04:57:12;24.30;;;16.00;;
29732;SDS011;16643;43.158;25.302;2023-06-14T04:59:42;29.20;;;16.60;;
29732;SDS011;16643;43.158;25.302;2023-06-14T05:02:09;27.17;;;18.83;;
29732;SDS011;16643;43.158;25.302;2023-06-14T05:04:36;30.70;;;20.52;;
29732;SDS011;16643;43.158;25.302;2023-06-14T05:07:06;34.60;;;19.80;;
29732;SDS011;16643;43.158;25.302;2023-06-14T05:09:34;33.35;;;19.75;;
29732;SDS011;16643;43.158;25.302;2023-06-14T05:12:00;32.03;;;20.02;;
29732;SDS011;16643;43.158;25.302;2023-06-14T05:14:26;34.78;;;19.52;;
29732;SDS011;16643;43.158;25.302;2023-06-14T05:16:52;32.25;;;20.90;;
29732;SDS011;16643;43.158;25.302;2023-06-14T05:19:18;32.75;;;20.50;;
29732;SDS011;16643;43.158;25.302;2023-06-14T05:21:46;37.58;;;22.10;;
29732;SDS011;16643;43.158;25.302;2023-06-14T05:24:13;36.85;;;20.48;;
29732;SDS011;16643;43.158;25.302;2023-06-14T05:26:39;33.05;;;21.15;;
29732;SDS011;16643;43.158;25.302;2023-06-14T05:29:04;33.72;;;19.75;;
29732;SDS011;16643;43.158;25.302;2023-06-14T05:31:30;29.98;;;19.90;;
29732;SDS011;16643;43.158;25.302;2023-06-14T05:33:56;27.48;;;20.27;;
29732;SDS011;16643;43.158;25.302;2023-06-14T05:36:21;33.30;;;20.13;;
29732;SDS011;16643;43.158;25.302;2023-06-14T05:38:47;33.22;;;21.48;;
29732;SDS011;16643;43.158;25.302;2023-06-14T05:41:13;29.88;;;19.35;;
29732;SDS011;16643;43.158;25.302;2023-06-14T05:43:38;30.45;;;18.88;;
29732;SDS011;16643;43.158;25.302;2023-06-14T05:46:04;29.88;;;19.73;;
29732;SDS011;16643;43.158;25.302;2023-06-14T05:48:30;31.02;;;20.58;;
29732;SDS011;16643;43.158;25.302;2023-06-14T05:50:55;31.77;;;20.17;;
29732;SDS011;16643;43.158;25.302;2023-06-14T05:53:21;32.97;;;20.23;;
29732;SDS011;16643;43.158;25.302;2023-06-14T05:55:47;28.60;;;19.20;;
29732;SDS011;16643;43.158;25.302;2023-06-14T05:58:12;28.20;;;18.23;;
29732;SDS011;16643;43.158;25.302;2023-06-14T06:00:39;33.20;;;20.48;;
29732;SDS011;16643;43.158;25.302;2023-06-14T06:03:04;30.50;;;18.60;;
29732;SDS011;16643;43.158;25.302;2023-06-14T06:05:33;29.42;;;18.42;;
29732;SDS011;16643;43.158;25.302;2023-06-14T06:07:58;32.55;;;18.17;;
29732;SDS011;16643;43.158;25.302;2023-06-14T06:10:25;29.35;;;19.63;;
29732;SDS011;16643;43.158;25.302;2023-06-14T06:12:51;30.75;;;18.50;;
29732;SDS011;16643;43.158;25.302;2023-06-14T06:15:17;30.55;;;19.13;;
29732;SDS011;16643;43.158;25.302;2023-06-14T06:17:44;36.95;;;21.08;;
29732;SDS011;16643;43.158;25.302;2023-06-14T06:20:09;31.95;;;20.92;;
29732;SDS011;16643;43.158;25.302;2023-06-14T06:22:36;31.47;;;20.70;;
29732;SDS011;16643;43.158;25.302;2023-06-14T06:25:03;31.10;;;19.15;;
29732;SDS011;16643;43.158;25.302;2023-06-14T06:27:28;34.15;;;18.92;;
29732;SDS011;16643;43.158;25.302;2023-06-14T06:29:54;38.45;;;20.17;;
29732;SDS011;16643;43.158;25.302;2023-06-14T06:32:20;32.00;;;17.92;;
29732;SDS011;16643;43.158;25.302;2023-06-14T06:34:46;31.08;;;19.33;;
29732;SDS011;16643;43.158;25.302;2023-06-14T06:37:11;27.88;;;17.73;;
29732;SDS011;16643;43.158;25.302;2023-06-14T06:39:38;27.98;;;16.92;;
29732;SDS011;16643;43.158;25.302;2023-06-14T06:42:03;26.90;;;17.05;;
29732;SDS011;16643;43.158;25.302;2023-06-14T06:44:30;28.77;;;18.10;;
29732;SDS011;16643;43.158;25.302;2023-06-14T06:46:57;29.17;;;17.63;;
29732;SDS011;16643;43.158;25.302;2023-06-14T06:49:22;27.58;;;17.73;;
29732;SDS011;16643;43.158;25.302;2023-06-14T06:52:01;22.63;;;15.02;;
29732;SDS011;16643;43.158;25.302;2023-06-14T06:54:27;24.85;;;16.80;;
29732;SDS011;16643;43.158;25.302;2023-06-14T06:56:53;26.77;;;16.90;;
29732;SDS011;16643;43.158;25.302;2023-06-14T06:59:19;23.83;;;16.42;;
29732;SDS011;16643;43.158;25.302;2023-06-14T07:01:45;25.02;;;17.75;;
29732;SDS011;16643;43.158;25.302;2023-06-14T07:04:10;29.65;;;18.08;;
29732;SDS011;16643;43.158;25.302;2023-06-14T07:06:36;31.80;;;18.77;;
29732;SDS011;16643;43.158;25.302;2023-06-14T07:09:02;27.67;;;17.65;;
29732;SDS011;16643;43.158;25.302;2023-06-14T07:11:30;29.25;;;18.60;;
29732;SDS011;16643;43.158;25.302;2023-06-14T07:13:55;25.05;;;16.83;;
29732;SDS011;16643;43.158;25.302;2023-06-14T07:16:21;31.80;;;17.95;;
29732;SDS011;16643;43.158;25.302;2023-06-14T07:18:47;26.15;;;17.05;;
29732;SDS011;16643;43.158;25.302;2023-06-14T07:21:14;27.83;;;17.75;;
29732;SDS011;16643;43.158;25.302;2023-06-14T07:23:39;25.73;;;16.70;;
29732;SDS011;16643;43.158;25.302;2023-06-14T07:26:05;27.55;;;17.17;;
29732;SDS011;16643;43.158;25.302;2023-06-14T07:28:31;27.58;;;17.95;;
29732;SDS011;16643;43.158;25.302;2023-06-14T07:30:56;33.25;;;18.35;;
29732;SDS011;16643;43.158;25.302;2023-06-14T07:33:22;30.20;;;19.35;;
29732;SDS011;16643;43.158;25.302;2023-06-14T07:35:48;28.58;;;18.75;;
29732;SDS011;16643;43.158;25.302;2023-06-14T07:38:14;28.05;;;18.05;;
29732;SDS011;16643;43.158;25.302;2023-06-14T07:40:42;31.90;;;18.55;;
29732;SDS011;16643;43.158;25.302;2023-06-14T07:43:07;29.97;;;18.17;;
29732;SDS011;16643;43.158;25.302;2023-06-14T07:45:33;30.90;;;18.70;;
29732;SDS011;16643;43.158;25.302;2023-06-14T07:47:58;26.35;;;17.75;;
29732;SDS011;16643;43.158;25.302;2023-06-14T07:50:24;26.58;;;16.50;;
29732;SDS011;16643;43.158;25.302;2023-06-14T07:52:50;26.83;;;17.58;;
29732;SDS011;16643;43.158;25.302;2023-06-14T07:55:15;22.98;;;15.95;;
29732;SDS011;16643;43.158;25.302;2023-06-14T07:57:41;26.85;;;17.58;;
29732;SDS011;16643;43.158;25.302;2023-06-14T08:00:08;27.35;;;17.23;;
29732;SDS011;16643;43.158;25.302;2023-06-14T08:02:36;26.73;;;17.25;;
29732;SDS011;16643;43.158;25.302;2023-06-14T08:05:02;30.13;;;18.85;;
29732;SDS011;16643;43.158;25.302;2023-06-14T08:07:27;27.00;;;18.75;;
29732;SDS011;16643;43.158;25.302;2023-06-14T08:09:53;27.50;;;19.05;;
29732;SDS011;16643;43.158;25.302;2023-06-14T08:12:18;29.15;;;17.95;;
29732;SDS011;16643;43.158;25.302;2023-06-14T08:14:44;24.40;;;17.00;;
29732;SDS011;16643;43.158;25.302;2023-06-14T08:17:10;33.63;;;17.75;;
29732;SDS011;16643;43.158;25.302;2023-06-14T08:19:35;41.10;;;21.08;;
29732;SDS011;16643;43.158;25.302;2023-06-14T08:22:01;46.03;;;26.63;;
29732;SDS011;16643;43.158;25.302;2023-06-14T08:24:28;46.93;;;26.33;;
29732;SDS011;16643;43.158;25.302;2023-06-14T08:26:54;30.88;;;18.98;;
29732;SDS011;16643;43.158;25.302;2023-06-14T08:29:21;27.20;;;16.90;;
29732;SDS011;16643;43.158;25.302;2023-06-14T08:31:47;41.67;;;23.65;;
29732;SDS011;16643;43.158;25.302;2023-06-14T08:34:13;30.30;;;19.00;;
29732;SDS011;16643;43.158;25.302;2023-06-14T08:36:39;24.52;;;15.93;;
29732;SDS011;16643;43.158;25.302;2023-06-14T08:39:04;34.58;;;15.73;;
29732;SDS011;16643;43.158;25.302;2023-06-14T08:41:31;19.85;;;13.30;;
29732;SDS011;16643;43.158;25.302;2023-06-14T08:43:57;18.33;;;12.95;;
29732;SDS011;16643;43.158;25.302;2023-06-14T08:46:25;19.15;;;11.27;;
29732;SDS011;16643;43.158;25.302;2023-06-14T08:48:53;17.85;;;12.10;;
29732;SDS011;16643;43.158;25.302;2023-06-14T08:51:25;17.67;;;12.77;;
29732;SDS011;16643;43.158;25.302;2023-06-14T08:53:59;17.38;;;11.15;;
29732;SDS011;16643;43.158;25.302;2023-06-14T08:56:28;18.27;;;11.63;;
29732;SDS011;16643;43.158;25.302;2023-06-14T08:58:56;15.40;;;11.00;;
29732;SDS011;16643;43.158;25.302;2023-06-14T09:01:26;16.92;;;11.57;;
29732;SDS011;16643;43.158;25.302;2023-06-14T09:03:52;15.93;;;10.52;;
29732;SDS011;16643;43.158;25.302;2023-06-14T09:06:20;17.15;;;13.07;;
29732;SDS011;16643;43.158;25.302;2023-06-14T09:08:58;14.85;;;12.05;;
29732;SDS011;16643;43.158;25.302;2023-06-14T09:11:24;15.88;;;10.85;;
29732;SDS011;16643;43.158;25.302;2023-06-14T09:13:51;18.20;;;12.25;;
29732;SDS011;16643;43.158;25.302;2023-06-14T09:16:17;14.38;;;10.40;;
29732;SDS011;16643;43.158;25.302;2023-06-14T09:18:44;15.40;;;10.43;;
29732;SDS011;16643;43.158;25.302;2023-06-14T09:21:13;15.13;;;11.27;;
29732;SDS011;16643;43.158;25.302;2023-06-14T09:23:40;13.63;;;9.97;;
29732;SDS011;16643;43.158;25.302;2023-06-14T09:26:10;19.05;;;12.70;;
29732;SDS011;16643;43.158;25.302;2023-06-14T09:28:44;12.52;;;8.70;;
29732;SDS011;16643;43.158;25.302;2023-06-14T09:31:11;16.75;;;9.65;;
29732;SDS011;16643;43.158;25.302;2023-06-14T09:33:52;14.25;;;9.55;;
29732;SDS011;16643;43.158;25.302;2023-06-14T09:36:24;13.45;;;9.90;;
29732;SDS011;16643;43.158;25.302;2023-06-14T09:38:51;15.00;;;9.38;;
29732;SDS011;16643;43.158;25.302;2023-06-14T09:41:30;13.10;;;8.82;;
29732;SDS011;16643;43.158;25.302;2023-06-14T09:44:00;15.13;;;8.55;;
29732;SDS011;16643;43.158;25.302;2023-06-14T09:48:54;11.45;;;8.50;;
29732;SDS011;16643;43.158;25.302;2023-06-14T09:51:21;15.32;;;10.65;;
29732;SDS011;16643;43.158;25.302;2023-06-14T09:53:48;18.05;;;12.98;;
29732;SDS011;16643;43.158;25.302;2023-06-14T09:56:16;16.30;;;12.02;;
29732;SDS011;16643;43.158;25.302;2023-06-14T09:59:06;16.95;;;11.93;;
29732;SDS011;16643;43.158;25.302;2023-06-14T10:01:35;16.15;;;11.93;;
29732;SDS011;16643;43.158;25.302;2023-06-14T10:04:05;12.57;;;10.48;;
29732;SDS011;16643;43.158;25.302;2023-06-14T10:06:33;15.93;;;11.48;;
29732;SDS011;16643;43.158;25.302;2023-06-14T10:09:03;16.58;;;11.52;;
29732;SDS011;16643;43.158;25.302;2023-06-14T10:11:30;15.23;;;11.05;;
29732;SDS011;16643;43.158;25.302;2023-06-14T10:13:57;12.45;;;9.02;;
29732;SDS011;16643;43.158;25.302;2023-06-14T10:22:22;14.13;;;10.07;;
29732;SDS011;16643;43.158;25.302;2023-06-14T10:24:55;15.65;;;10.15;;
29732;SDS011;16643;43.158;25.302;2023-06-14T10:27:21;16.15;;;9.13;;
29732;SDS011;16643;43.158;25.302;2023-06-14T10:32:23;12.10;;;8.93;;
29732;SDS011;16643;43.158;25.302;2023-06-14T10:34:56;13.45;;;9.32;;
29732;SDS011;16643;43.158;25.302;2023-06-14T10:37:27;12.00;;;9.23;;
29732;SDS011;16643;43.158;25.302;2023-06-14T10:39:52;14.13;;;9.35;;
29732;SDS011;16643;43.158;25.302;2023-06-14T10:42:28;14.90;;;10.38;;
29732;SDS011;16643;43.158;25.302;2023-06-14T10:44:57;12.52;;;9.63;;
29732;SDS011;16643;43.158;25.302;2023-06-14T10:47:31;13.63;;;9.65;;
29732;SDS011;16643;43.158;25.302;2023-06-14T10:50:04;12.07;;;9.52;;
29732;SDS011;16643;43.158;25.302;2023-06-14T10:52:34;11.63;;;9.07;;
29732;SDS011;16643;43.158;25.302;2023-06-14T10:55:13;12.05;;;9.73;;
29732;SDS011;16643;43.158;25.302;2023-06-14T10:57:50;11.48;;;8.95;;
29732;SDS011;16643;43.158;25.302;2023-06-14T11:00:24;14.35;;;10.10;;
29732;SDS011;16643;43.158;25.302;2023-06-14T11:11:00;10.80;;;8.45;;
29732;SDS011;16643;43.158;25.302;2023-06-14T11:13:30;12.57;;;8.15;;
29732;SDS011;16643;43.158;25.302;2023-06-14T11:15:56;12.50;;;7.72;;
29732;SDS011;16643;43.158;25.302;2023-06-14T11:18:22;10.25;;;7.45;;
29732;SDS011;16643;43.158;25.302;2023-06-14T11:20:54;10.52;;;7.90;;
29732;SDS011;16643;43.158;25.302;2023-06-14T11:23:21;10.80;;;8.50;;
29732;SDS011;16643;43.158;25.302;2023-06-14T11:25:51;13.68;;;8.35;;
29732;SDS011;16643;43.158;25.302;2023-06-14T11:28:17;12.80;;;8.40;;
29732;SDS011;16643;43.158;25.302;2023-06-14T11:30:45;11.73;;;7.32;;
29732;SDS011;16643;43.158;25.302;2023-06-14T11:33:11;10.68;;;7.30;;
29732;SDS011;16643;43.158;25.302;2023-06-14T11:35:43;11.63;;;7.95;;
29732;SDS011;16643;43.158;25.302;2023-06-14T11:38:09;12.25;;;8.40;;
29732;SDS011;16643;43.158;25.302;2023-06-14T11:40:37;9.25;;;7.32;;
29732;SDS011;16643;43.158;25.302;2023-06-14T11:45:29;11.35;;;8.15;;
29732;SDS011;16643;43.158;25.302;2023-06-14T11:47:55;12.38;;;7.93;;
29732;SDS011;16643;43.158;25.302;2023-06-14T11:50:22;10.27;;;7.17;;
29732;SDS011;16643;43.158;25.302;2023-06-14T11:52:54;12.55;;;7.43;;
29732;SDS011;16643;43.158;25.302;2023-06-14T11:55:38;11.13;;;7.85;;
29732;SDS011;16643;43.158;25.302;2023-06-14T11:58:04;9.15;;;7.50;;
29732;SDS011;16643;43.158;25.302;2023-06-14T12:00:30;9.82;;;7.80;;
29732;SDS011;16643;43.158;25.302;2023-06-14T12:02:56;10.63;;;7.38;;
29732;SDS011;16643;43.158;25.302;2023-06-14T12:05:22;9.80;;;7.00;;
29732;SDS011;16643;43.158;25.302;2023-06-14T12:07:50;11.25;;;7.22;;
29732;SDS011;16643;43.158;25.302;2023-06-14T12:10:18;10.20;;;7.50;;
29732;SDS011;16643;43.158;25.302;2023-06-14T12:12:45;7.80;;;6.97;;
29732;SDS011;16643;43.158;25.302;2023-06-14T12:15:10;10.15;;;6.97;;
29732;SDS011;16643;43.158;25.302;2023-06-14T12:17:37;12.38;;;8.15;;
29732;SDS011;16643;43.158;25.302;2023-06-14T12:20:11;8.23;;;6.72;;
29732;SDS011;16643;43.158;25.302;2023-06-14T12:22:52;10.48;;;6.50;;
29732;SDS011;16643;43.158;25.302;2023-06-14T12:28:03;8.73;;;6.40;;
29732;SDS011;16643;43.158;25.302;2023-06-14T12:30:31;10.23;;;6.57;;
29732;SDS011;16643;43.158;25.302;2023-06-14T12:32:57;10.30;;;6.60;;
29732;SDS011;16643;43.158;25.302;2023-06-14T12:35:23;9.25;;;6.82;;
29732;SDS011;16643;43.158;25.302;2023-06-14T12:37:49;11.38;;;7.43;;
29732;SDS011;16643;43.158;25.302;2023-06-14T12:40:14;8.35;;;6.25;;
29732;SDS011;16643;43.158;25.302;2023-06-14T12:42:40;11.93;;;7.45;;
29732;SDS011;16643;43.158;25.302;2023-06-14T12:45:07;8.43;;;6.82;;
29732;SDS011;16643;43.158;25.302;2023-06-14T12:47:32;8.25;;;6.68;;
29732;SDS011;16643;43.158;25.302;2023-06-14T12:49:58;7.93;;;6.80;;
29732;SDS011;16643;43.158;25.302;2023-06-14T12:52:24;16.58;;;8.45;;
29732;SDS011;16643;43.158;25.302;2023-06-14T12:54:49;10.68;;;6.55;;
29732;SDS011;16643;43.158;25.302;2023-06-14T12:57:15;10.80;;;6.72;;
29732;SDS011;16643;43.158;25.302;2023-06-14T12:59:41;34.25;;;12.75;;
29732;SDS011;16643;43.158;25.302;2023-06-14T13:02:19;12.23;;;6.78;;
29732;SDS011;16643;43.158;25.302;2023-06-14T13:04:49;8.98;;;6.40;;
29732;SDS011;16643;43.158;25.302;2023-06-14T13:07:15;16.27;;;7.78;;
29732;SDS011;16643;43.158;25.302;2023-06-14T13:09:41;9.75;;;6.30;;
29732;SDS011;16643;43.158;25.302;2023-06-14T13:12:08;10.85;;;5.88;;
29732;SDS011;16643;43.158;25.302;2023-06-14T13:14:37;10.27;;;7.28;;
29732;SDS011;16643;43.158;25.302;2023-06-14T13:17:05;7.85;;;5.97;;
29732;SDS011;16643;43.158;25.302;2023-06-14T13:19:33;7.50;;;5.75;;
29732;SDS011;16643;43.158;25.302;2023-06-14T13:21:58;9.02;;;5.97;;
29732;SDS011;16643;43.158;25.302;2023-06-14T13:24:24;8.02;;;6.47;;
29732;SDS011;16643;43.158;25.302;2023-06-14T13:26:50;7.90;;;6.43;;
29732;SDS011;16643;43.158;25.302;2023-06-14T13:29:16;11.82;;;6.63;;
29732;SDS011;16643;43.158;25.302;2023-06-14T13:31:42;15.85;;;7.85;;
29732;SDS011;16643;43.158;25.302;2023-06-14T13:34:07;25.08;;;9.35;;
29732;SDS011;16643;43.158;25.302;2023-06-14T13:36:33;10.70;;;6.30;;
29732;SDS011;16643;43.158;25.302;2023-06-14T13:38:59;8.82;;;6.20;;
29732;SDS011;16643;43.158;25.302;2023-06-14T13:41:25;8.77;;;7.05;;
29732;SDS011;16643;43.158;25.302;2023-06-14T13:43:58;9.63;;;6.32;;
29732;SDS011;16643;43.158;25.302;2023-06-14T13:46:24;8.05;;;6.63;;
29732;SDS011;16643;43.158;25.302;2023-06-14T13:48:50;9.27;;;6.03;;
29732;SDS011;16643;43.158;25.302;2023-06-14T13:51:17;7.95;;;6.00;;
29732;SDS011;16643;43.158;25.302;2023-06-14T13:53:53;9.93;;;5.63;;
29732;SDS011;16643;43.158;25.302;2023-06-14T13:56:20;7.18;;;5.32;;
29732;SDS011;16643;43.158;25.302;2023-06-14T13:58:47;6.40;;;5.15;;
29732;SDS011;16643;43.158;25.302;2023-06-14T14:01:13;7.97;;;6.30;;
29732;SDS011;16643;43.158;25.302;2023-06-14T14:03:39;8.07;;;5.72;;
29732;SDS011;16643;43.158;25.302;2023-06-14T14:06:04;7.63;;;5.35;;
29732;SDS011;16643;43.158;25.302;2023-06-14T14:08:32;6.68;;;4.95;;
29732;SDS011;16643;43.158;25.302;2023-06-14T14:10:58;6.15;;;5.10;;
29732;SDS011;16643;43.158;25.302;2023-06-14T14:13:24;7.60;;;5.50;;
29732;SDS011;16643;43.158;25.302;2023-06-14T14:15:50;6.90;;;5.38;;
29732;SDS011;16643;43.158;25.302;2023-06-14T14:18:16;12.57;;;6.35;;
29732;SDS011;16643;43.158;25.302;2023-06-14T14:20:42;7.63;;;5.15;;
29732;SDS011;16643;43.158;25.302;2023-06-14T14:23:07;9.00;;;5.95;;
29732;SDS011;16643;43.158;25.302;2023-06-14T14:25:33;6.60;;;5.13;;
29732;SDS011;16643;43.158;25.302;2023-06-14T14:27:59;9.35;;;6.38;;
29732;SDS011;16643;43.158;25.302;2023-06-14T14:30:24;6.45;;;4.55;;
29732;SDS011;16643;43.158;25.302;2023-06-14T14:32:50;6.75;;;4.97;;
29732;SDS011;16643;43.158;25.302;2023-06-14T14:35:17;6.73;;;4.80;;
29732;SDS011;16643;43.158;25.302;2023-06-14T14:37:43;7.40;;;5.03;;
29732;SDS011;16643;43.158;25.302;2023-06-14T14:40:09;6.68;;;4.80;;
29732;SDS011;16643;43.158;25.302;2023-06-14T14:42:35;12.45;;;5.57;;
29732;SDS011;16643;43.158;25.302;2023-06-14T14:45:01;7.82;;;5.00;;
29732;SDS011;16643;43.158;25.302;2023-06-14T14:47:27;8.20;;;4.97;;
29732;SDS011;16643;43.158;25.302;2023-06-14T14:49:53;7.07;;;5.10;;
29732;SDS011;16643;43.158;25.302;2023-06-14T14:52:18;7.25;;;4.95;;